Map

Track Data

SID SEASON NUMBER BASIN SUBBASIN NAME ISO_TIME NATURE LAT LON WMO_WIND WMO_PRES WMO_AGENCY TRACK_TYPE DIST2LAND LANDFALL IFLAG USA_AGENCY USA_ATCF_ID USA_LAT USA_LON USA_RECORD USA_STATUS USA_WIND USA_PRES USA_SSHS USA_R34_NE USA_R34_SE USA_R34_SW USA_R34_NW USA_R50_NE USA_R50_SE USA_R50_SW USA_R50_NW USA_R64_NE USA_R64_SE USA_R64_SW USA_R64_NW USA_POCI USA_ROCI USA_RMW USA_EYE TOKYO_LAT TOKYO_LON TOKYO_GRADE TOKYO_WIND TOKYO_PRES TOKYO_R50_DIR TOKYO_R50_LONG TOKYO_R50_SHORT TOKYO_R30_DIR TOKYO_R30_LONG TOKYO_R30_SHORT TOKYO_LAND CMA_LAT CMA_LON CMA_CAT CMA_WIND CMA_PRES HKO_LAT HKO_LON HKO_CAT HKO_WIND HKO_PRES NEWDELHI_LAT NEWDELHI_LON NEWDELHI_GRADE NEWDELHI_WIND NEWDELHI_PRES NEWDELHI_CI NEWDELHI_DP NEWDELHI_POCI REUNION_LAT REUNION_LON REUNION_TYPE REUNION_WIND REUNION_PRES REUNION_TNUM REUNION_CI REUNION_RMW REUNION_R34_NE REUNION_R34_SE REUNION_R34_SW REUNION_R34_NW REUNION_R50_NE REUNION_R50_SE REUNION_R50_SW REUNION_R50_NW REUNION_R64_NE REUNION_R64_SE REUNION_R64_SW REUNION_R64_NW BOM_LAT BOM_LON BOM_TYPE BOM_WIND BOM_PRES BOM_TNUM BOM_CI BOM_RMW BOM_R34_NE BOM_R34_SE BOM_R34_SW BOM_R34_NW BOM_R50_NE BOM_R50_SE BOM_R50_SW BOM_R50_NW BOM_R64_NE BOM_R64_SE BOM_R64_SW BOM_R64_NW BOM_ROCI BOM_POCI BOM_EYE BOM_POS_METHOD BOM_PRES_METHOD NADI_LAT NADI_LON NADI_CAT NADI_WIND NADI_PRES WELLINGTON_LAT WELLINGTON_LON WELLINGTON_WIND WELLINGTON_PRES DS824_LAT DS824_LON DS824_STAGE DS824_WIND DS824_PRES TD9636_LAT TD9636_LON TD9636_STAGE TD9636_WIND TD9636_PRES TD9635_LAT TD9635_LON TD9635_WIND TD9635_PRES TD9635_ROCI NEUMANN_LAT NEUMANN_LON NEUMANN_CLASS NEUMANN_WIND NEUMANN_PRES MLC_LAT MLC_LON MLC_CLASS MLC_WIND MLC_PRES USA_GUST BOM_GUST BOM_GUST_PER REUNION_GUST REUNION_GUST_PER USA_SEAHGT USA_SEARAD_NE USA_SEARAD_SE USA_SEARAD_SW USA_SEARAD_NW STORM_SPEED STORM_DIR
1959284N20072 1959 93 NI AS NOT_NAMED 1959-10-10 18:00:00 TS 19.7000 71.5000 main 125 94 O________O____ jtwc_io IO141959 19.7000 71.5000 -1 19.7000 71.5000 TC 6 348
1959284N20072 1959 93 NI AS NOT_NAMED 1959-10-10 21:00:00 TS 19.9875 71.4401 main 94 74 P________P____ IO141959 19.9875 71.4401 -1 19.9875 71.4401 TC 5 349
1959284N20072 1959 93 NI AS NOT_NAMED 1959-10-11 00:00:00 TS 20.2000 71.4000 main 74 64 O________O____ jtwc_io IO141959 20.2000 71.4000 -1 20.2000 71.4000 TC 25 3 353
1959284N20072 1959 93 NI AS NOT_NAMED 1959-10-11 03:00:00 TS 20.2889 71.3933 main 64 64 P________PO___ IO141959 20.2875 71.3925 -1 20.2875 71.3925 TC 25 20.3000 71.4000 1 1 0
1959284N20072 1959 93 NI AS NOT_NAMED 1959-10-11 06:00:00 TS 20.3000 71.4000 main 64 64 O________OP___ jtwc_io IO141959 20.3000 71.4000 -1 20.3000 71.4000 TC 25 20.3000 71.4000 1 0 0
1959284N20072 1959 93 NI AS NOT_NAMED 1959-10-11 09:00:00 TS 20.3055 71.4000 main 64 64 P________PP___ IO141959 20.3075 71.4000 -1 20.3075 71.4000 TC 25 20.3000 71.4000 1 0 0
1959284N20072 1959 93 NI AS NOT_NAMED 1959-10-11 12:00:00 TS 20.3000 71.4000 main 64 64 O________OP___ jtwc_io IO141959 20.3000 71.4000 -1 20.3000 71.4000 TC 25 20.3000 71.4000 1 0 0
1959284N20072 1959 93 NI AS NOT_NAMED 1959-10-11 15:00:00 TS 20.3000 71.4000 main 64 64 P________PO___ IO141959 20.3000 71.4000 -1 20.3000 71.4000 TC 25 20.3000 71.4000 1 0 0
1959284N20072 1959 93 NI AS NOT_NAMED 1959-10-11 18:00:00 TS 20.3000 71.4000 main 64 64 O________OP___ jtwc_io IO141959 20.3000 71.4000 -1 20.3000 71.4000 TC 25 20.3000 71.4000 1 0 0
1959284N20072 1959 93 NI AS NOT_NAMED 1959-10-11 21:00:00 TS 20.3000 71.4000 main 64 64 P________PP___ IO141959 20.3000 71.4000 -1 20.3000 71.4000 TC 25 20.3000 71.4000 1 0 0
1959284N20072 1959 93 NI AS NOT_NAMED 1959-10-12 00:00:00 TS 20.3000 71.4000 main 64 64 O________OP___ jtwc_io IO141959 20.3000 71.4000 -1 20.3000 71.4000 TC 25 20.3000 71.4000 1 0 0
1959284N20072 1959 93 NI AS NOT_NAMED 1959-10-12 03:00:00 TS 20.3000 71.4000 main 64 64 P________PO___ IO141959 20.3000 71.4000 -1 20.3000 71.4000 TC 25 20.3000 71.4000 1 0 0
1959284N20072 1959 93 NI AS NOT_NAMED 1959-10-12 06:00:00 TS 20.3000 71.4000 main 64 64 O________OP___ jtwc_io IO141959 20.3000 71.4000 -1 20.3000 71.4000 TC 25 20.3000 71.4000 1 0 0
1959284N20072 1959 93 NI AS NOT_NAMED 1959-10-12 09:00:00 TS 20.3000 71.4000 main 64 64 P________PP___ IO141959 20.3000 71.4000 -1 20.3000 71.4000 TC 25 20.3000 71.4000 1 0 0
1959284N20072 1959 93 NI AS NOT_NAMED 1959-10-12 12:00:00 TS 20.3000 71.4000 main 64 64 O________OP___ jtwc_io IO141959 20.3000 71.4000 -1 20.3000 71.4000 TC 25 20.3000 71.4000 1 0 0
1959284N20072 1959 93 NI AS NOT_NAMED 1959-10-12 15:00:00 TS 20.3000 71.4000 main 64 64 P________PO___ IO141959 20.3000 71.4000 -1 20.3000 71.4000 TC 25 20.3000 71.4000 1 0 0
1959284N20072 1959 93 NI AS NOT_NAMED 1959-10-12 18:00:00 TS 20.2878 71.3987 main 64 64 O________OP___ jtwc_io IO141959 20.3000 71.4000 -1 20.3000 71.4000 TC 25 20.2634 71.3960 1 0 0
1959284N20072 1959 93 NI AS NOT_NAMED 1959-10-12 21:00:00 TS 20.2725 71.3975 main 64 64 P________PP___ IO141959 20.2925 71.4000 -1 20.2925 71.4000 TC 25 20.2325 71.3925 1 0 0
1959284N20072 1959 93 NI AS NOT_NAMED 1959-10-13 00:00:00 TS 20.2784 71.3976 main 64 64 O________OP___ jtwc_io IO141959 20.3000 71.4000 -1 20.3000 71.4000 TC 25 20.2353 71.3929 1 0 321
1959284N20072 1959 93 NI AS NOT_NAMED 1959-10-13 03:00:00 TS 20.3033 71.3950 main 64 54 P________PO___ IO141959 20.3050 71.3925 -1 20.3050 71.3925 TC 25 20.3000 71.4000 1 2 9
1959284N20072 1959 93 NI AS NOT_NAMED 1959-10-13 06:00:00 TS 20.4296 71.4153 main 54 24 O________OP___ jtwc_io IO141959 20.4000 71.4000 -1 20.4000 71.4000 TC 25 20.4887 71.4460 1 4 9
1959284N20072 1959 93 NI AS NOT_NAMED 1959-10-13 09:00:00 TS 20.7017 71.4698 main 24 0 P________PP___ IO141959 20.6850 71.4574 -1 20.6850 71.4574 TC 25 20.7349 71.4947 1 6 9
1959284N20072 1959 93 NI AS NOT_NAMED 1959-10-13 12:00:00 TS 20.9962 71.5070 main 0 0 O________OP___ jtwc_io IO141959 21.0000 71.5000 -1 21.0000 71.5000 TC 25 20.9887 71.5210 1 5 0
1959284N20072 1959 93 NI AS NOT_NAMED 1959-10-13 15:00:00 TS 21.1866 71.4917 main 0 0 P________PO___ IO141959 21.1800 71.4875 -1 21.1800 71.4875 TC 25 21.2000 71.5000 1 3 341
1959284N20072 1959 93 NI AS NOT_NAMED 1959-10-13 18:00:00 TS 21.3096 71.3961 main 0 0 O________OP___ jtwc_io IO141959 21.3000 71.4000 -1 21.3000 71.4000 TC 25 21.3289 71.3884 1 4 313
1959284N20072 1959 93 NI AS NOT_NAMED 1959-10-13 21:00:00 TS 21.4268 71.2152 main 0 0 P________PP___ IO141959 21.4376 71.2076 -1 21.4376 71.2076 TC 25 21.4052 71.2303 1 4 295
1959284N20072 1959 93 NI AS NOT_NAMED 1959-10-14 00:00:00 TS 21.4763 71.0190 main 0 0 O________OP___ jtwc_io IO141959 21.5000 71.0000 -1 21.5000 71.0000 TC 25 21.4289 71.0570 1 3 270
1959284N20072 1959 93 NI AS NOT_NAMED 1959-10-14 03:00:00 TS 21.4250 70.8850 main 0 0 P________PO___ IO141959 21.4375 70.8774 -1 21.4375 70.8774 TC 25 21.4000 70.9000 1 3 230
1959284N20072 1959 93 NI AS NOT_NAMED 1959-10-14 06:00:00 TS 21.3071 70.8025 main 0 0 O________OP___ jtwc_io IO141959 21.3000 70.8000 -1 21.3000 70.8000 TC 25 21.3212 70.8074 1 3 207
1959284N20072 1959 93 NI AS NOT_NAMED 1959-10-14 09:00:00 TS 21.1649 70.7450 main 0 0 P________PP___ IO141959 21.1500 70.7500 -1 21.1500 70.7500 TC 25 21.1949 70.7349 1 3 199
1959284N20072 1959 93 NI AS NOT_NAMED 1959-10-14 12:00:00 TS 21.0154 70.6900 main 0 0 O________OP___ jtwc_io IO141959 21.0000 70.7000 -1 21.0000 70.7000 TC 25 21.0462 70.6700 1 3 206
1959284N20072 1959 93 NI AS NOT_NAMED 1959-10-14 15:00:00 TS 20.8950 70.6050 main 0 0 P________PO___ IO141959 20.8925 70.6075 -1 20.8925 70.6075 TC 25 20.9000 70.6000 1 3 218
1959284N20072 1959 93 NI AS NOT_NAMED 1959-10-14 18:00:00 TS 20.8016 70.5079 main 11 11 O________OP___ jtwc_io IO141959 20.8000 70.5000 -1 20.8000 70.5000 TC 25 20.8049 70.5236 1 3 224
1959284N20072 1959 93 NI AS NOT_NAMED 1959-10-14 21:00:00 TS 20.7099 70.4176 main 24 24 P________PP___ IO141959 20.7075 70.4075 -1 20.7075 70.4075 TC 30 20.7149 70.4378 1 3 224
1959284N20072 1959 93 NI AS NOT_NAMED 1959-10-15 00:00:00 TS 20.6058 70.3110 main 39 39 O________OP___ jtwc_io IO141959 20.6000 70.3000 -1 20.6000 70.3000 TC 35 20.6174 70.3331 1 3 223
1959284N20072 1959 93 NI AS NOT_NAMED 1959-10-15 03:00:00 TS 20.4717 70.1767 main 54 54 P________PO___ IO141959 20.4575 70.1650 -1 20.4575 70.1650 TC 35 20.5000 70.2000 2 4 224
1959284N20072 1959 93 NI AS NOT_NAMED 1959-10-15 06:00:00 TS 20.3128 70.0122 main 84 84 O________OP___ jtwc_io IO141959 20.3000 70.0000 -1 20.3000 70.0000 TC 35 20.3384 70.0367 2 5 226
1959284N20072 1959 93 NI AS NOT_NAMED 1959-10-15 09:00:00 TS 20.1525 69.8200 main 106 106 P________PP___ IO141959 20.1500 69.8075 -1 20.1500 69.8075 TC 35 20.1575 69.8448 2 5 230
1959284N20072 1959 93 NI AS NOT_NAMED 1959-10-15 12:00:00 TS 19.9909 69.6102 main 137 137 O________OP___ jtwc_io IO141959 20.0000 69.6000 -1 20.0000 69.6000 TC 35 19.9728 69.6305 2 5 231
1959284N20072 1959 93 NI AS NOT_NAMED 1959-10-15 15:00:00 TS 19.8333 69.4050 main 167 167 P________PO___ IO141959 19.8499 69.4076 -1 19.8499 69.4076 TC 35 19.8000 69.4000 3 5 232
1959284N20072 1959 93 NI AS NOT_NAMED 1959-10-15 18:00:00 TS 19.6854 69.1990 main 188 188 O________OP___ jtwc_io IO141959 19.7000 69.2000 -1 19.7000 69.2000 TC 35 19.6562 69.1971 3 5 234
1959284N20072 1959 93 NI AS NOT_NAMED 1959-10-15 21:00:00 TS 19.5372 68.9735 main 218 218 P________PP___ IO141959 19.5424 68.9725 -1 19.5424 68.9725 TC 35 19.5268 68.9753 3 5 239
1959284N20072 1959 93 NI AS NOT_NAMED 1959-10-16 00:00:00 TS 19.4030 68.7053 main 246 246 O________OP___ jtwc_io IO141959 19.4000 68.7000 -1 19.4000 68.7000 TC 35 19.4091 68.7159 3 6 246
1959284N20072 1959 93 NI AS NOT_NAMED 1959-10-16 03:00:00 TS 19.2949 68.3867 main 275 275 P________PO___ IO141959 19.2924 68.3801 -1 19.2924 68.3801 TC 35 19.3000 68.4000 3 7 252
1959284N20072 1959 93 NI AS NOT_NAMED 1959-10-16 06:00:00 TS 19.1922 68.0078 main 312 312 O________OP___ jtwc_io IO141959 19.2000 68.0000 -1 19.2000 68.0000 TC 35 19.1765 68.0235 3 8 255
1959284N20072 1959 93 NI AS NOT_NAMED 1959-10-16 09:00:00 TS 19.0874 67.5782 main 351 351 P________PP___ IO141959 19.0999 67.5725 -1 19.0999 67.5725 TC 35 19.0623 67.5895 3 9 257
1959284N20072 1959 93 NI AS NOT_NAMED 1959-10-16 12:00:00 TS 18.9890 67.1036 main 396 396 O________OP___ jtwc_io IO141959 19.0000 67.1000 -1 19.0000 67.1000 TC 35 18.9670 67.1109 3 9 258
1959284N20072 1959 93 NI AS NOT_NAMED 1959-10-16 15:00:00 TS 18.8849 66.6099 main 442 442 P________PO___ IO141959 18.8774 66.6148 -1 18.8774 66.6148 TC 35 18.9000 66.6000 3 10 260
1959284N20072 1959 93 NI AS NOT_NAMED 1959-10-16 18:00:00 TS 18.8183 66.0929 main 488 488 O________OP___ jtwc_io IO141959 18.8000 66.1000 -1 18.8000 66.1000 TC 35 18.8549 66.0788 3 10 267
1959284N20072 1959 93 NI AS NOT_NAMED 1959-10-16 21:00:00 TS 18.8316 65.5484 main 527 527 P________PP___ IO141959 18.8274 65.5577 -1 18.8274 65.5577 TC 50 18.8399 65.5299 3 10 274
1959284N20072 1959 93 NI AS NOT_NAMED 1959-10-17 00:00:00 TS 18.8849 64.9887 main 556 556 O________OP___ jtwc_io IO141959 18.9000 65.0000 -1 18.9000 65.0000 TC 65 18.8548 64.9661 3 11 275
1959284N20072 1959 93 NI AS NOT_NAMED 1959-10-17 03:00:00 TS 18.9282 64.4333 main 601 549 P________PO___ IO141959 18.9423 64.4499 -1 18.9423 64.4499 TC 65 18.9000 64.4000 4 10 276
1959284N20072 1959 93 NI AS NOT_NAMED 1959-10-17 06:00:00 TS 18.9942 63.8889 main 549 499 O________OP___ jtwc_io IO141959 19.0000 63.9000 -1 19.0000 63.9000 TC 65 18.9826 63.8667 4 10 279
1959284N20072 1959 93 NI AS NOT_NAMED 1959-10-17 09:00:00 TS 19.0919 63.3486 main 490 440 P________PP___ IO141959 19.0923 63.3575 -1 19.0923 63.3575 TC 65 19.0913 63.3307 4 11 281
1959284N20072 1959 93 NI AS NOT_NAMED 1959-10-17 12:00:00 TS 19.2015 62.7931 main 440 382 O________OP___ jtwc_io IO141959 19.2000 62.8000 -1 19.2000 62.8000 TC 65 19.2044 62.7792 4 11 281
1959284N20072 1959 93 NI AS NOT_NAMED 1959-10-17 15:00:00 TS 19.3099 62.2101 main 382 327 P________PO___ IO141959 19.3148 62.2151 -1 19.3148 62.2151 TC 65 19.3000 62.2000 4 11 279
1959284N20072 1959 93 NI AS NOT_NAMED 1959-10-17 18:00:00 TS 19.3846 61.5939 main 327 280 O________OP___ jtwc_io IO141959 19.4000 61.6000 -1 19.4000 61.6000 TC 65 19.3614 61.5846 4 12 275
1959284N20072 1959 93 NI AS NOT_NAMED 1959-10-17 21:00:00 TS 19.4084 60.9497 main 271 218 P________PP___ IO141959 19.4205 60.9574 -1 19.4205 60.9574 TC 65 19.3924 60.9395 4 12 271
1959284N20072 1959 93 NI AS NOT_NAMED 1959-10-18 00:00:00 TS 19.4011 60.2873 main 218 160 O________OP___ jtwc_io IO141959 19.4000 60.3000 -1 19.4000 60.3000 TC 65 19.4022 60.2746 4 13 270
1959284N20072 1959 93 NI AS NOT_NAMED 1959-10-18 03:00:00 NR 19.4000 59.6000 main 160 __________O___ IO141959 -1 TC 19.4000 59.6000 4 13 270

About IBTrACS Database

This database is a web-friendly format of International Best Track Archive for Climate Stewardship (IBTrACS), a global best track data archive curated by NOAA dating back to 1842.

Updated: 2021-11-26